createdAt,value
2019-03-10T00:00:08.422Z,983.38
2019-03-10T00:01:08.413Z,983.37
2019-03-10T00:02:10.433Z,983.41
2019-03-10T00:03:08.403Z,983.40
2019-03-10T00:04:08.381Z,983.35
2019-03-10T00:05:08.388Z,983.33
2019-03-10T00:06:08.390Z,983.30
2019-03-10T00:07:08.346Z,983.27
2019-03-10T00:08:08.422Z,983.39
2019-03-10T00:09:08.323Z,983.27
2019-03-10T00:10:08.317Z,983.29
2019-03-10T00:11:08.320Z,983.29
2019-03-10T00:12:08.305Z,983.30
2019-03-10T00:13:08.281Z,983.29
2019-03-10T00:14:08.285Z,983.26
2019-03-10T00:15:08.260Z,983.25
2019-03-10T00:16:08.250Z,983.26
2019-03-10T00:17:08.257Z,983.22
2019-03-10T00:18:08.239Z,983.23
2019-03-10T00:19:08.216Z,983.17
2019-03-10T00:20:08.215Z,983.18
2019-03-10T00:21:08.197Z,983.07
2019-03-10T00:22:08.192Z,983.03
2019-03-10T00:23:08.205Z,982.91
2019-03-10T00:24:08.161Z,983.00
2019-03-10T00:25:08.160Z,982.87
2019-03-10T00:26:08.138Z,982.87
2019-03-10T00:27:08.131Z,982.89
2019-03-10T00:28:08.131Z,982.81
2019-03-10T00:29:08.250Z,982.79
2019-03-10T00:30:08.097Z,982.75
2019-03-10T00:31:08.093Z,982.78
2019-03-10T00:32:08.079Z,982.69
2019-03-10T00:33:08.079Z,982.72
2019-03-10T00:34:08.057Z,982.67
2019-03-10T00:35:08.068Z,982.62
2019-03-10T00:36:08.034Z,982.63
2019-03-10T00:37:08.019Z,982.69
2019-03-10T00:38:08.012Z,982.63
2019-03-10T00:39:08.009Z,982.62
2019-03-10T00:40:07.996Z,982.58
2019-03-10T00:41:08.019Z,982.56
2019-03-10T00:42:07.980Z,982.60
2019-03-10T00:43:07.958Z,982.57
2019-03-10T00:44:07.941Z,982.56
2019-03-10T00:45:07.942Z,982.57
2019-03-10T00:46:07.929Z,982.53
2019-03-10T00:47:07.926Z,982.54
2019-03-10T00:48:07.903Z,982.52
2019-03-10T00:49:07.894Z,982.50
2019-03-10T00:50:07.881Z,982.46
2019-03-10T00:51:07.874Z,982.47
2019-03-10T00:52:07.874Z,982.33
2019-03-10T00:53:07.863Z,982.36
2019-03-10T00:54:07.841Z,982.32
2019-03-10T00:55:07.828Z,982.29
2019-03-10T00:56:07.831Z,982.30
2019-03-10T00:57:07.830Z,982.26
2019-03-10T00:58:07.789Z,982.17
2019-03-10T00:59:07.818Z,982.18
2019-03-10T01:00:07.773Z,982.13
2019-03-10T01:01:07.770Z,982.07
2019-03-10T01:02:07.764Z,982.09
2019-03-10T01:03:07.739Z,982.08
2019-03-10T01:04:07.757Z,982.08
2019-03-10T01:05:07.736Z,982.07
2019-03-10T01:06:07.705Z,982.05
2019-03-10T01:07:07.713Z,982.06
2019-03-10T01:08:07.683Z,982.03
2019-03-10T01:09:07.929Z,981.96
2019-03-10T01:10:07.667Z,981.92
2019-03-10T01:11:07.664Z,981.89
2019-03-10T01:12:07.641Z,981.85
2019-03-10T01:13:07.635Z,981.85
2019-03-10T01:14:07.628Z,981.83
2019-03-10T01:15:07.610Z,981.74
2019-03-10T01:16:07.596Z,981.73
2019-03-10T01:17:07.599Z,981.73
2019-03-10T01:18:07.580Z,981.65
2019-03-10T01:19:07.567Z,981.63
2019-03-10T01:20:07.557Z,981.57
2019-03-10T01:21:07.542Z,981.54
2019-03-10T01:22:07.545Z,981.54
2019-03-10T01:23:07.553Z,981.47
2019-03-10T01:24:07.519Z,981.47
2019-03-10T01:25:07.497Z,981.48
2019-03-10T01:26:07.504Z,981.55
2019-03-10T01:27:07.504Z,981.43
2019-03-10T01:28:07.482Z,981.37
2019-03-10T01:29:07.482Z,981.31
2019-03-10T01:30:07.442Z,981.34
2019-03-10T01:31:07.435Z,981.36
2019-03-10T01:32:07.435Z,981.29
2019-03-10T01:33:07.409Z,981.24
2019-03-10T01:34:07.397Z,981.26
2019-03-10T01:35:07.488Z,981.27
2019-03-10T01:36:07.378Z,981.24
2019-03-10T01:37:07.375Z,981.22
2019-03-10T01:38:07.355Z,981.22
2019-03-10T01:39:07.355Z,981.15
2019-03-10T01:40:07.336Z,981.08
2019-03-10T01:41:07.343Z,980.98
2019-03-10T01:42:07.311Z,981.00
2019-03-10T01:43:07.324Z,980.96
2019-03-10T01:44:07.289Z,980.89
2019-03-10T01:45:07.285Z,980.89
2019-03-10T01:46:07.265Z,980.86
2019-03-10T01:47:07.272Z,980.82
2019-03-10T01:48:07.269Z,980.78
2019-03-10T01:49:07.265Z,980.78
2019-03-10T01:50:07.224Z,980.74
2019-03-10T01:51:07.217Z,980.83
2019-03-10T01:52:07.201Z,980.66
2019-03-10T01:53:07.212Z,980.55
2019-03-10T01:54:07.200Z,980.58
2019-03-10T01:55:07.188Z,980.58
2019-03-10T01:56:07.163Z,980.51
2019-03-10T01:57:07.154Z,980.50
2019-03-10T01:58:07.137Z,980.49
2019-03-10T01:59:07.153Z,980.48
2019-03-10T02:00:07.153Z,980.41
2019-03-10T02:01:07.128Z,980.45
2019-03-10T02:02:07.095Z,980.40
2019-03-10T02:03:07.083Z,980.34
2019-03-10T02:04:07.093Z,980.27
2019-03-10T02:05:07.160Z,980.26
2019-03-10T02:06:07.060Z,980.26
2019-03-10T02:07:07.038Z,980.17
2019-03-10T02:08:07.028Z,980.15
2019-03-10T02:09:07.150Z,980.09
2019-03-10T02:10:07.006Z,980.10
2019-03-10T02:11:07.013Z,980.06
2019-03-10T02:12:06.997Z,980.00
2019-03-10T02:13:06.973Z,979.96
2019-03-10T02:14:06.967Z,979.94
2019-03-10T02:15:06.951Z,979.85
2019-03-10T02:16:06.960Z,979.83
2019-03-10T02:17:06.961Z,979.88
2019-03-10T02:18:06.926Z,979.84
2019-03-10T02:19:06.938Z,979.78
2019-03-10T02:20:06.935Z,979.82
2019-03-10T02:21:06.900Z,979.72
2019-03-10T02:22:06.882Z,979.74
2019-03-10T02:23:06.883Z,979.68
2019-03-10T02:24:06.876Z,979.63
2019-03-10T02:25:06.852Z,979.50
2019-03-10T02:26:06.839Z,979.54
2019-03-10T02:27:06.828Z,979.54
2019-03-10T02:28:06.812Z,979.48
2019-03-10T02:29:06.821Z,979.50
2019-03-10T02:30:06.804Z,979.50
2019-03-10T02:31:06.781Z,979.50
2019-03-10T02:32:06.772Z,979.48
2019-03-10T02:33:06.769Z,979.41
2019-03-10T02:34:06.755Z,979.29
2019-03-10T02:35:06.777Z,979.30
2019-03-10T02:36:06.727Z,979.28
2019-03-10T02:37:06.723Z,979.25
2019-03-10T02:38:06.713Z,979.21
2019-03-10T02:39:06.711Z,979.23
2019-03-10T02:40:06.687Z,979.18
2019-03-10T02:41:06.701Z,979.22
2019-03-10T02:42:06.660Z,979.26
2019-03-10T02:43:06.651Z,979.19
2019-03-10T02:44:06.637Z,979.14
2019-03-10T02:45:06.635Z,978.98
2019-03-10T02:46:06.618Z,978.99
2019-03-10T02:47:06.625Z,978.90
2019-03-10T02:48:06.617Z,978.84
2019-03-10T02:49:06.595Z,978.95
2019-03-10T02:50:06.590Z,978.90
2019-03-10T02:51:06.571Z,978.89
2019-03-10T02:52:06.589Z,978.92
2019-03-10T02:53:06.556Z,978.87
2019-03-10T02:54:06.532Z,978.88
2019-03-10T02:55:06.519Z,978.78
2019-03-10T02:56:06.509Z,978.80
2019-03-10T02:57:06.497Z,978.70
2019-03-10T02:58:06.496Z,978.60
2019-03-10T02:59:06.495Z,978.64
2019-03-10T03:00:06.480Z,978.56
2019-03-10T03:01:06.460Z,978.62
2019-03-10T03:02:06.468Z,978.59
2019-03-10T03:03:06.469Z,978.64
2019-03-10T03:04:06.431Z,978.54
2019-03-10T03:05:06.534Z,978.68
2019-03-10T03:06:06.419Z,978.62
2019-03-10T03:07:06.385Z,978.63
2019-03-10T03:08:06.410Z,978.61
2019-03-10T03:09:06.377Z,978.56
2019-03-10T03:10:06.371Z,978.52
2019-03-10T03:11:06.379Z,978.58
2019-03-10T03:12:06.338Z,978.55
2019-03-10T03:13:06.324Z,978.48
2019-03-10T03:14:06.311Z,978.53
2019-03-10T03:15:06.298Z,978.51
2019-03-10T03:16:06.294Z,978.44
2019-03-10T03:17:06.331Z,978.46
2019-03-10T03:18:06.311Z,978.49
2019-03-10T03:19:06.256Z,978.49
2019-03-10T03:20:06.254Z,978.56
2019-03-10T03:21:06.237Z,978.43
2019-03-10T03:22:06.240Z,978.39
2019-03-10T03:23:06.262Z,978.32
2019-03-10T03:24:06.206Z,978.36
2019-03-10T03:25:06.208Z,978.29
2019-03-10T03:26:06.184Z,978.22
2019-03-10T03:27:06.183Z,978.24
2019-03-10T03:28:06.179Z,978.18
2019-03-10T03:29:06.191Z,978.08
2019-03-10T03:30:06.301Z,978.14
2019-03-10T03:31:06.143Z,978.15
2019-03-10T03:32:06.140Z,978.14
2019-03-10T03:33:06.149Z,978.03
2019-03-10T03:34:06.123Z,978.00
2019-03-10T03:35:06.200Z,978.05
2019-03-10T03:36:06.078Z,978.06
2019-03-10T03:37:06.077Z,978.02
2019-03-10T03:38:06.077Z,977.94
2019-03-10T03:39:06.042Z,977.92
2019-03-10T03:40:06.031Z,977.83
2019-03-10T03:41:06.033Z,977.92
2019-03-10T03:42:06.011Z,977.78
2019-03-10T03:43:05.999Z,977.72
2019-03-10T03:44:05.999Z,977.80
2019-03-10T03:45:06.116Z,977.83
2019-03-10T03:46:05.986Z,977.86
2019-03-10T03:47:05.982Z,977.82
2019-03-10T03:48:05.969Z,977.87
2019-03-10T03:49:05.934Z,977.94
2019-03-10T03:50:05.925Z,977.88
2019-03-10T03:51:05.924Z,977.89
2019-03-10T03:52:05.906Z,977.99
2019-03-10T03:53:05.909Z,977.94
2019-03-10T03:54:05.883Z,977.74
2019-03-10T03:55:05.868Z,977.85
2019-03-10T03:56:05.873Z,977.87
2019-03-10T03:57:06.553Z,978.01
2019-03-10T03:58:05.844Z,978.01
2019-03-10T03:59:05.844Z,978.03
2019-03-10T04:00:05.820Z,978.04
2019-03-10T04:01:05.804Z,977.99
2019-03-10T04:02:05.811Z,978.02
2019-03-10T04:03:05.791Z,978.05
2019-03-10T04:04:05.778Z,978.12
2019-03-10T04:05:05.877Z,978.05
2019-03-10T04:06:05.742Z,978.02
2019-03-10T04:07:05.740Z,978.05
2019-03-10T04:08:05.749Z,978.13
2019-03-10T04:09:05.725Z,978.10
2019-03-10T04:10:05.724Z,978.05
2019-03-10T04:11:05.732Z,977.95
2019-03-10T04:12:05.733Z,977.97
2019-03-10T04:13:05.683Z,977.98
2019-03-10T04:14:05.665Z,977.94
2019-03-10T04:15:05.697Z,977.89
2019-03-10T04:16:05.636Z,977.93
2019-03-10T04:17:05.646Z,977.88
2019-03-10T04:18:05.619Z,977.91
2019-03-10T04:19:05.616Z,977.84
2019-03-10T04:20:05.616Z,977.79
2019-03-10T04:21:05.584Z,977.79
2019-03-10T04:22:05.582Z,977.80
2019-03-10T04:23:05.604Z,977.90
2019-03-10T04:24:05.568Z,977.82
2019-03-10T04:25:05.613Z,977.85
2019-03-10T04:26:05.538Z,977.72
2019-03-10T04:27:05.518Z,977.69
2019-03-10T04:28:05.527Z,977.77
2019-03-10T04:29:05.532Z,977.78
2019-03-10T04:30:05.522Z,977.79
2019-03-10T04:31:05.486Z,977.74
2019-03-10T04:32:05.472Z,977.69
2019-03-10T04:33:05.472Z,977.69
2019-03-10T04:34:05.442Z,977.73
2019-03-10T04:35:05.445Z,977.72
2019-03-10T04:36:05.429Z,977.70
2019-03-10T04:37:05.415Z,977.76
2019-03-10T04:38:05.426Z,977.65
2019-03-10T04:39:05.397Z,977.57
2019-03-10T04:40:05.374Z,977.55
2019-03-10T04:41:05.397Z,977.59
2019-03-10T04:42:05.355Z,977.66
2019-03-10T04:43:05.370Z,977.62
2019-03-10T04:44:05.335Z,977.63
2019-03-10T04:45:05.330Z,977.70
2019-03-10T04:46:05.322Z,977.59
2019-03-10T04:47:05.320Z,977.66
2019-03-10T04:48:05.288Z,977.70
2019-03-10T04:49:05.284Z,977.66
2019-03-10T04:50:05.262Z,977.72
2019-03-10T04:51:05.271Z,977.74
2019-03-10T04:52:05.251Z,977.55
2019-03-10T04:53:05.258Z,977.54
2019-03-10T04:54:05.224Z,977.57
2019-03-10T04:55:05.211Z,977.52
2019-03-10T04:56:05.201Z,977.53
2019-03-10T04:57:05.193Z,977.52
2019-03-10T04:58:05.178Z,977.56
2019-03-10T04:59:05.186Z,977.55
2019-03-10T05:00:05.167Z,977.66
2019-03-10T05:01:05.147Z,977.49
2019-03-10T05:02:05.133Z,977.51
2019-03-10T05:03:05.137Z,977.62
2019-03-10T05:04:05.119Z,977.57
2019-03-10T05:05:05.118Z,977.57
2019-03-10T05:06:05.112Z,977.49
2019-03-10T05:07:05.131Z,977.58
2019-03-10T05:08:05.073Z,977.60
2019-03-10T05:09:05.056Z,977.49
2019-03-10T05:10:05.050Z,977.34
2019-03-10T05:11:05.089Z,977.51
2019-03-10T05:12:05.024Z,977.39
2019-03-10T05:13:05.013Z,977.46
2019-03-10T05:14:05.002Z,977.37
2019-03-10T05:15:04.989Z,977.37
2019-03-10T05:16:04.976Z,977.40
2019-03-10T05:17:05.003Z,977.41
2019-03-10T05:18:04.966Z,977.42
2019-03-10T05:19:04.947Z,977.36
2019-03-10T05:20:04.940Z,977.49
2019-03-10T05:21:04.924Z,977.36
2019-03-10T05:22:04.926Z,977.49
2019-03-10T05:23:04.923Z,977.43
2019-03-10T05:24:04.954Z,977.45
2019-03-10T05:25:04.889Z,977.45
2019-03-10T05:26:04.877Z,977.42
2019-03-10T05:27:04.888Z,977.46
2019-03-10T05:28:04.853Z,977.42
2019-03-10T05:29:04.857Z,977.46
2019-03-10T05:30:04.829Z,977.41
2019-03-10T05:31:04.812Z,977.43
2019-03-10T05:32:04.805Z,977.46
2019-03-10T05:33:04.815Z,977.38
2019-03-10T05:34:04.778Z,977.41
2019-03-10T05:35:04.786Z,977.38
2019-03-10T05:36:04.754Z,977.41
2019-03-10T05:37:04.759Z,977.47
2019-03-10T05:38:04.732Z,977.50
2019-03-10T05:39:04.751Z,977.48
2019-03-10T05:40:04.716Z,977.47
2019-03-10T05:41:04.738Z,977.50
2019-03-10T05:42:04.687Z,977.57
2019-03-10T05:43:04.748Z,977.49
2019-03-10T05:44:04.667Z,977.52
2019-03-10T05:45:04.665Z,977.59
2019-03-10T05:46:04.654Z,977.58
2019-03-10T05:47:04.655Z,977.46
2019-03-10T05:48:04.620Z,977.45
2019-03-10T05:49:04.610Z,977.56
2019-03-10T05:50:04.595Z,977.48
2019-03-10T05:51:04.588Z,977.62
2019-03-10T05:52:04.583Z,977.50
2019-03-10T05:53:04.607Z,977.46
2019-03-10T05:54:04.565Z,977.51
2019-03-10T05:55:04.549Z,977.44
2019-03-10T05:56:04.547Z,977.41
2019-03-10T05:57:04.542Z,977.45
2019-03-10T05:58:04.530Z,977.51
2019-03-10T05:59:04.553Z,977.39
2019-03-10T06:00:04.498Z,977.52
2019-03-10T06:01:04.484Z,977.57
2019-03-10T06:02:04.475Z,977.40
2019-03-10T06:03:04.479Z,977.55
2019-03-10T06:04:04.448Z,977.55
2019-03-10T06:05:06.061Z,977.53
2019-03-10T06:06:04.441Z,977.52
2019-03-10T06:07:04.419Z,977.51
2019-03-10T06:08:04.403Z,977.54
2019-03-10T06:09:04.413Z,977.61
2019-03-10T06:10:04.381Z,977.56
2019-03-10T06:11:04.420Z,977.65
2019-03-10T06:12:11.407Z,977.65
2019-03-10T06:13:04.349Z,977.58
2019-03-10T06:14:04.339Z,977.72
2019-03-10T06:15:04.326Z,977.62
2019-03-10T06:16:04.317Z,977.75
2019-03-10T06:17:04.363Z,977.75
2019-03-10T06:18:12.995Z,977.76
2019-03-10T06:19:05.287Z,977.77
2019-03-10T06:20:04.272Z,977.83
2019-03-10T06:21:04.263Z,977.55
2019-03-10T06:22:04.257Z,977.74
2019-03-10T06:23:04.288Z,977.46
2019-03-10T06:24:04.235Z,977.55
2019-03-10T06:25:04.222Z,977.67
2019-03-10T06:26:04.213Z,977.60
2019-03-10T06:27:04.200Z,977.56
2019-03-10T06:28:04.188Z,977.45
2019-03-10T06:29:04.195Z,977.56
2019-03-10T06:30:04.164Z,977.38
2019-03-10T06:31:04.158Z,977.48
2019-03-10T06:32:04.216Z,977.39
2019-03-10T06:33:04.140Z,977.50
2019-03-10T06:34:04.123Z,977.41
2019-03-10T06:35:04.167Z,977.40
2019-03-10T06:36:04.112Z,977.40
2019-03-10T06:37:04.089Z,977.52
2019-03-10T06:38:04.078Z,977.48
2019-03-10T06:39:04.074Z,977.39
2019-03-10T06:40:04.068Z,977.42
2019-03-10T06:41:04.107Z,977.35
2019-03-10T06:42:04.034Z,977.37
2019-03-10T06:43:04.054Z,977.33
2019-03-10T06:44:04.089Z,977.32
2019-03-10T06:45:04.002Z,977.39
2019-03-10T06:46:03.996Z,977.41
2019-03-10T06:47:04.049Z,977.38
2019-03-10T06:48:03.979Z,977.39
2019-03-10T06:49:03.956Z,977.37
2019-03-10T06:50:03.947Z,977.48
2019-03-10T06:51:03.934Z,977.44
2019-03-10T06:52:03.931Z,977.39
2019-03-10T06:53:03.966Z,977.40
2019-03-10T06:54:03.902Z,977.33
2019-03-10T06:55:04.483Z,977.44
2019-03-10T06:56:04.092Z,977.40
2019-03-10T06:57:03.870Z,977.33
2019-03-10T06:58:03.861Z,977.34
2019-03-10T06:59:03.915Z,977.50
2019-03-10T07:00:03.835Z,977.41
2019-03-10T07:01:03.825Z,977.36
2019-03-10T07:02:03.812Z,977.64
2019-03-10T07:03:03.803Z,977.53
2019-03-10T07:04:03.790Z,977.65
2019-03-10T07:05:03.835Z,977.73
2019-03-10T07:06:03.772Z,977.75
2019-03-10T07:07:03.771Z,977.79
2019-03-10T07:08:03.746Z,977.55
2019-03-10T07:09:03.758Z,977.62
2019-03-10T07:10:03.736Z,977.65
2019-03-10T07:11:03.738Z,977.71
2019-03-10T07:12:03.703Z,977.62
2019-03-10T07:13:03.760Z,977.93
2019-03-10T07:14:03.681Z,977.58
2019-03-10T07:15:03.669Z,977.64
2019-03-10T07:16:03.662Z,977.67
2019-03-10T07:17:03.703Z,977.67
2019-03-10T07:18:03.642Z,977.93
2019-03-10T07:19:03.693Z,977.61
2019-03-10T07:20:03.616Z,977.57
2019-03-10T07:21:03.615Z,977.70
2019-03-10T07:22:03.595Z,977.62
2019-03-10T07:23:03.595Z,977.83
2019-03-10T07:24:03.577Z,977.70
2019-03-10T07:25:03.589Z,977.77
2019-03-10T07:26:03.554Z,977.66
2019-03-10T07:27:03.541Z,977.65
2019-03-10T07:28:03.530Z,977.66
2019-03-10T07:29:03.573Z,977.65
2019-03-10T07:30:03.507Z,977.74
2019-03-10T07:31:03.557Z,977.71
2019-03-10T07:32:03.489Z,977.73
2019-03-10T07:33:03.476Z,977.77
2019-03-10T07:34:03.480Z,977.68
2019-03-10T07:35:03.506Z,977.82
2019-03-10T07:36:03.443Z,977.78
2019-03-10T07:37:03.453Z,977.66
2019-03-10T07:38:03.421Z,977.88
2019-03-10T07:39:03.411Z,977.72
2019-03-10T07:40:03.401Z,977.63
2019-03-10T07:41:03.411Z,977.68
2019-03-10T07:42:03.379Z,977.64
2019-03-10T07:43:03.365Z,977.67
2019-03-10T07:44:03.357Z,977.74
2019-03-10T07:45:03.344Z,977.80
2019-03-10T07:46:03.330Z,977.91
2019-03-10T07:47:03.357Z,977.88
2019-03-10T07:48:03.345Z,977.78
2019-03-10T07:49:03.304Z,977.77
2019-03-10T07:50:03.292Z,977.84
2019-03-10T07:51:03.276Z,977.85
2019-03-10T07:52:03.267Z,977.88
2019-03-10T07:53:03.271Z,977.84
2019-03-10T07:54:03.246Z,977.78
2019-03-10T07:55:03.231Z,977.79
2019-03-10T07:56:03.222Z,977.87
2019-03-10T07:57:03.208Z,977.81
2019-03-10T07:58:03.203Z,977.48
2019-03-10T07:59:03.204Z,977.60
2019-03-10T08:00:03.182Z,977.45
2019-03-10T08:01:03.181Z,977.46
2019-03-10T08:02:03.157Z,977.45
2019-03-10T08:03:03.141Z,977.41
2019-03-10T08:04:03.131Z,977.37
2019-03-10T08:05:03.137Z,977.27
2019-03-10T08:06:03.109Z,977.27
2019-03-10T08:07:03.096Z,977.28
2019-03-10T08:08:03.087Z,977.13
2019-03-10T08:09:03.081Z,977.16
2019-03-10T08:10:03.066Z,977.17
2019-03-10T08:11:03.109Z,977.22
2019-03-10T08:12:03.040Z,977.10
2019-03-10T08:13:03.031Z,976.99
2019-03-10T08:14:03.017Z,976.97
2019-03-10T08:15:03.009Z,976.87
2019-03-10T08:16:03.007Z,976.89
2019-03-10T08:17:03.042Z,976.93
2019-03-10T08:18:02.976Z,976.81
2019-03-10T08:19:02.965Z,976.76
2019-03-10T08:20:02.963Z,976.83
2019-03-10T08:21:02.944Z,976.79
2019-03-10T08:22:02.937Z,976.77
2019-03-10T08:23:02.979Z,976.72
2019-03-10T08:24:02.909Z,976.86
2019-03-10T08:25:02.899Z,976.89
2019-03-10T08:26:02.886Z,976.69
2019-03-10T08:27:02.877Z,976.78
2019-03-10T08:28:02.875Z,976.92
2019-03-10T08:29:02.902Z,976.95
2019-03-10T08:30:02.841Z,976.93
2019-03-10T08:31:02.875Z,976.95
2019-03-10T08:32:04.001Z,976.98
2019-03-10T08:33:04.013Z,977.14
2019-03-10T08:34:03.872Z,977.13
2019-03-10T08:35:04.191Z,977.12
2019-03-10T08:36:04.166Z,977.12
2019-03-10T08:37:02.775Z,977.08
2019-03-10T08:38:02.771Z,977.29
2019-03-10T08:39:03.042Z,977.27
2019-03-10T08:40:02.748Z,977.28
2019-03-10T08:41:02.802Z,977.31
2019-03-10T08:42:02.710Z,977.38
2019-03-10T08:43:02.706Z,977.27
2019-03-10T08:44:02.703Z,977.38
2019-03-10T08:45:02.677Z,977.47
2019-03-10T08:46:02.667Z,977.36
2019-03-10T08:47:02.727Z,977.30
2019-03-10T08:48:02.643Z,977.17
2019-03-10T08:49:04.172Z,977.28
2019-03-10T08:50:02.619Z,977.31
2019-03-10T08:51:02.612Z,977.35
2019-03-10T08:52:02.615Z,977.28
2019-03-10T08:53:02.646Z,977.20
2019-03-10T08:54:03.052Z,977.17
2019-03-10T08:55:02.566Z,977.16
2019-03-10T08:56:02.555Z,977.13
2019-03-10T08:57:02.539Z,977.17
2019-03-10T08:58:02.532Z,977.19
2019-03-10T08:59:02.567Z,977.01
2019-03-10T09:00:02.514Z,977.03
2019-03-10T09:01:02.496Z,977.00
2019-03-10T09:02:02.484Z,977.02
2019-03-10T09:03:02.474Z,976.78
2019-03-10T09:04:02.461Z,976.79
2019-03-10T09:05:02.545Z,976.76
2019-03-10T09:06:02.439Z,976.66
2019-03-10T09:07:02.429Z,976.70
2019-03-10T09:08:02.419Z,976.69
2019-03-10T09:09:02.407Z,976.48
2019-03-10T09:10:02.400Z,976.52
2019-03-10T09:11:02.405Z,976.45
2019-03-10T09:12:02.374Z,976.54
2019-03-10T09:13:02.361Z,976.48
2019-03-10T09:14:02.349Z,976.56
2019-03-10T09:15:02.339Z,976.50
2019-03-10T09:16:02.326Z,976.57
2019-03-10T09:17:02.336Z,976.52
2019-03-10T09:18:02.307Z,976.50
2019-03-10T09:19:02.362Z,976.53
2019-03-10T09:20:02.405Z,976.60
2019-03-10T09:21:02.274Z,976.57
2019-03-10T09:22:02.743Z,976.51
2019-03-10T09:23:02.298Z,976.58
2019-03-10T09:24:02.240Z,976.62
2019-03-10T09:25:02.248Z,976.56
2019-03-10T09:26:02.247Z,976.63
2019-03-10T09:27:02.209Z,976.59
2019-03-10T09:28:02.198Z,976.51
2019-03-10T09:29:02.205Z,976.62
2019-03-10T09:30:02.178Z,976.58
2019-03-10T09:31:02.176Z,976.63
2019-03-10T09:32:02.155Z,976.61
2019-03-10T09:33:02.144Z,976.65
2019-03-10T09:34:02.168Z,976.66
2019-03-10T09:35:02.136Z,976.52
2019-03-10T09:36:02.140Z,976.60
2019-03-10T09:37:02.102Z,976.49
2019-03-10T09:38:03.781Z,976.55
2019-03-10T09:39:02.080Z,976.38
2019-03-10T09:40:02.073Z,976.61
2019-03-10T09:41:02.071Z,976.53
2019-03-10T09:42:02.043Z,976.68
2019-03-10T09:43:02.034Z,976.69
2019-03-10T09:44:03.913Z,976.77
2019-03-10T09:45:02.012Z,976.78
2019-03-10T09:46:02.017Z,976.70
2019-03-10T09:47:02.010Z,976.78
2019-03-10T09:48:01.980Z,976.85
2019-03-10T09:49:01.966Z,976.81
2019-03-10T09:50:01.958Z,976.79
2019-03-10T09:51:01.943Z,976.83
2019-03-10T09:52:01.975Z,977.06
2019-03-10T09:53:01.991Z,976.87
2019-03-10T09:54:01.910Z,976.80
2019-03-10T09:55:01.995Z,976.78
2019-03-10T09:56:01.889Z,976.57
2019-03-10T09:57:01.877Z,976.77
2019-03-10T09:58:01.866Z,976.76
2019-03-10T09:59:01.875Z,976.70
2019-03-10T10:00:01.853Z,976.75
2019-03-10T10:01:01.837Z,976.52
2019-03-10T10:02:01.823Z,976.69
2019-03-10T10:03:01.816Z,976.52
2019-03-10T10:04:01.802Z,976.44
2019-03-10T10:05:01.807Z,976.72
2019-03-10T10:06:01.781Z,976.56
2019-03-10T10:07:01.909Z,976.48
2019-03-10T10:08:01.759Z,976.52
2019-03-10T10:09:01.746Z,976.43
2019-03-10T10:10:01.738Z,976.37
2019-03-10T10:11:01.742Z,976.41
2019-03-10T10:12:12.734Z,976.27
2019-03-10T10:13:02.701Z,976.33
2019-03-10T10:14:01.723Z,976.50
2019-03-10T10:15:01.681Z,976.42
2019-03-10T10:16:01.678Z,976.46
2019-03-10T10:17:01.677Z,976.40
2019-03-10T10:18:01.654Z,976.41
2019-03-10T10:19:01.637Z,976.51
2019-03-10T10:20:01.624Z,976.45
2019-03-10T10:21:01.618Z,976.28
2019-03-10T10:22:01.620Z,976.33
2019-03-10T10:23:01.611Z,976.41
2019-03-10T10:24:01.580Z,976.42
2019-03-10T10:25:01.571Z,976.35
2019-03-10T10:26:01.557Z,976.51
2019-03-10T10:27:01.548Z,976.45
2019-03-10T10:28:01.539Z,976.43
2019-03-10T10:29:01.583Z,976.42
2019-03-10T10:30:01.519Z,976.39
2019-03-10T10:31:01.503Z,976.33
2019-03-10T10:32:01.529Z,976.38
2019-03-10T10:33:01.481Z,976.39
2019-03-10T10:34:01.471Z,976.52
2019-03-10T10:35:01.474Z,976.39
2019-03-10T10:36:01.452Z,976.48
2019-03-10T10:37:01.442Z,976.52
2019-03-10T10:38:01.440Z,976.50
2019-03-10T10:39:01.421Z,976.51
2019-03-10T10:40:01.403Z,976.45
2019-03-10T10:41:01.414Z,976.45
2019-03-10T10:42:01.384Z,976.53
2019-03-10T10:43:01.372Z,976.65
2019-03-10T10:44:01.363Z,976.77
2019-03-10T10:45:01.357Z,976.93
2019-03-10T10:46:01.349Z,976.99
2019-03-10T10:47:01.347Z,976.86
2019-03-10T10:48:01.318Z,977.02
2019-03-10T10:49:01.811Z,977.00
2019-03-10T10:50:01.304Z,976.94
2019-03-10T10:51:01.294Z,976.94
2019-03-10T10:52:01.276Z,976.98
2019-03-10T10:53:01.384Z,977.11
2019-03-10T10:54:01.251Z,977.19
2019-03-10T10:55:01.262Z,977.13
2019-03-10T10:56:01.249Z,977.14
2019-03-10T10:57:01.235Z,977.20
2019-03-10T10:58:01.227Z,977.35
2019-03-10T10:59:01.213Z,977.33
2019-03-10T11:00:01.188Z,977.33
2019-03-10T11:01:01.174Z,977.27
2019-03-10T11:02:01.167Z,977.32
2019-03-10T11:03:01.152Z,977.25
2019-03-10T11:04:01.143Z,977.37
2019-03-10T11:05:01.151Z,977.20
2019-03-10T11:06:01.120Z,977.20
2019-03-10T11:07:01.111Z,977.13
2019-03-10T11:08:01.097Z,977.15
2019-03-10T11:09:02.958Z,977.20
2019-03-10T11:10:01.076Z,977.00
2019-03-10T11:11:01.084Z,977.16
2019-03-10T11:12:01.061Z,977.16
2019-03-10T11:13:01.045Z,976.98
2019-03-10T11:14:01.034Z,977.01
2019-03-10T11:15:01.028Z,977.13
2019-03-10T11:16:01.009Z,977.22
2019-03-10T11:17:01.018Z,977.13
2019-03-10T11:18:08.889Z,977.25
2019-03-10T11:19:01.973Z,977.31
2019-03-10T11:20:00.969Z,977.31
2019-03-10T11:21:00.960Z,977.33
2019-03-10T11:22:00.944Z,977.20
2019-03-10T11:23:00.951Z,977.20
2019-03-10T11:24:00.926Z,977.37
2019-03-10T11:25:00.911Z,977.26
2019-03-10T11:26:00.910Z,977.38
2019-03-10T11:27:00.893Z,977.38
2019-03-10T11:28:00.882Z,977.42
2019-03-10T11:29:03.703Z,977.30
2019-03-10T11:30:00.887Z,977.24
2019-03-10T11:31:00.875Z,977.43
2019-03-10T11:32:00.835Z,977.60
2019-03-10T11:33:00.825Z,977.16
2019-03-10T11:34:00.813Z,977.40
2019-03-10T11:35:00.819Z,977.72
2019-03-10T11:36:00.800Z,977.58
2019-03-10T11:37:00.784Z,977.47
2019-03-10T11:38:00.771Z,977.70
2019-03-10T11:39:00.759Z,977.60
2019-03-10T11:40:00.749Z,977.30
2019-03-10T11:41:00.761Z,977.54
2019-03-10T11:42:00.726Z,977.61
2019-03-10T11:43:00.713Z,977.49
2019-03-10T11:44:00.707Z,977.40
2019-03-10T11:45:00.695Z,977.77
2019-03-10T11:46:00.704Z,977.57
2019-03-10T11:47:00.841Z,977.55
2019-03-10T11:48:00.661Z,977.71
2019-03-10T11:49:00.651Z,977.37
2019-03-10T11:50:00.641Z,977.52
2019-03-10T11:51:00.629Z,977.42
2019-03-10T11:52:00.615Z,977.40
2019-03-10T11:53:00.632Z,977.20
2019-03-10T11:54:00.600Z,977.52
2019-03-10T11:55:00.602Z,977.48
2019-03-10T11:56:00.570Z,977.61
2019-03-10T11:57:00.599Z,977.51
2019-03-10T11:58:00.546Z,977.50
2019-03-10T11:59:00.551Z,977.21
2019-03-10T12:00:00.528Z,977.43
2019-03-10T12:01:00.517Z,977.37
2019-03-10T12:02:00.506Z,977.32
2019-03-10T12:03:00.500Z,977.31
2019-03-10T12:04:00.484Z,977.35
2019-03-10T12:05:00.528Z,977.32
2019-03-10T12:06:00.461Z,977.31
2019-03-10T12:07:00.498Z,977.28
2019-03-10T12:08:00.442Z,977.20
2019-03-10T12:09:00.428Z,977.28
2019-03-10T12:10:00.418Z,977.22
2019-03-10T12:11:00.422Z,977.28
2019-03-10T12:12:00.496Z,977.35
2019-03-10T12:13:00.384Z,977.28
2019-03-10T12:14:00.377Z,977.10
2019-03-10T12:15:00.378Z,977.05
2019-03-10T12:16:00.355Z,976.81
2019-03-10T12:17:00.358Z,977.13
2019-03-10T12:18:00.329Z,977.29
2019-03-10T12:19:00.316Z,976.97
2019-03-10T12:20:00.378Z,976.82
2019-03-10T12:21:00.301Z,976.88
2019-03-10T12:22:00.298Z,977.13
2019-03-10T12:23:00.334Z,977.13
2019-03-10T12:24:00.261Z,976.97
2019-03-10T12:25:00.414Z,977.30
2019-03-10T12:26:00.242Z,977.17
2019-03-10T12:27:00.229Z,977.08
2019-03-10T12:28:00.220Z,977.05